createdAt,value
2017-01-17T00:00:17.221Z,1032.79
2017-01-17T00:01:17.959Z,1032.8
2017-01-17T00:02:18.691Z,1032.83
2017-01-17T00:03:19.440Z,1032.81
2017-01-17T00:04:20.177Z,1032.79
2017-01-17T00:05:20.921Z,1032.79
2017-01-17T00:06:21.679Z,1032.82
2017-01-17T00:07:22.427Z,1032.83
2017-01-17T00:08:23.172Z,1032.84
2017-01-17T00:09:23.921Z,1032.81
2017-01-17T00:10:24.656Z,1032.78
2017-01-17T00:11:25.521Z,1032.8
2017-01-17T00:12:26.300Z,1032.8
2017-01-17T00:13:27.053Z,1032.78
2017-01-17T00:14:27.786Z,1032.77
2017-01-17T00:15:28.536Z,1032.81
2017-01-17T00:16:29.295Z,1032.74
2017-01-17T00:17:30.039Z,1032.79
2017-01-17T00:18:30.790Z,1032.79
2017-01-17T00:19:31.560Z,1032.8
2017-01-17T00:20:32.295Z,1032.77
2017-01-17T00:21:33.035Z,1032.81
2017-01-17T00:22:33.782Z,1032.81
2017-01-17T00:23:34.551Z,1032.81
2017-01-17T00:24:35.298Z,1032.8
2017-01-17T00:25:36.050Z,1032.8
2017-01-17T00:26:36.823Z,1032.83
2017-01-17T00:27:37.548Z,1032.8
2017-01-17T00:28:38.305Z,1032.78
2017-01-17T00:29:39.056Z,1032.79
2017-01-17T00:30:39.814Z,1032.77
2017-01-17T00:31:40.565Z,1032.75
2017-01-17T00:32:41.346Z,1032.76
2017-01-17T00:33:42.118Z,1032.82
2017-01-17T00:34:42.867Z,1032.79
2017-01-17T00:35:43.609Z,1032.81
2017-01-17T00:36:44.340Z,1032.85
2017-01-17T00:37:45.157Z,1032.88
2017-01-17T00:38:45.896Z,1032.86
2017-01-17T00:39:46.657Z,1032.85
2017-01-17T00:40:47.382Z,1032.86
2017-01-17T00:41:48.120Z,1032.91
2017-01-17T00:42:48.878Z,1032.89
2017-01-17T00:43:49.615Z,1032.89
2017-01-17T00:44:50.344Z,1032.93
2017-01-17T00:45:51.108Z,1032.89
2017-01-17T00:46:51.850Z,1032.93
2017-01-17T00:47:52.584Z,1032.92
2017-01-17T00:48:53.327Z,1032.91
2017-01-17T00:49:54.083Z,1032.9
2017-01-17T00:50:54.845Z,1032.92
2017-01-17T00:51:55.604Z,1032.89
2017-01-17T00:52:56.370Z,1032.95
2017-01-17T00:53:57.136Z,1032.95
2017-01-17T00:54:57.886Z,1033.01
2017-01-17T00:55:58.625Z,1032.99
2017-01-17T00:56:59.388Z,1033
2017-01-17T00:58:00.149Z,1033.03
2017-01-17T00:59:00.897Z,1033.06
2017-01-17T01:00:01.631Z,1033.03
2017-01-17T01:01:02.399Z,1033.06
2017-01-17T01:02:03.154Z,1033.05
2017-01-17T01:03:03.926Z,1033.08
2017-01-17T01:04:04.672Z,1033.1
2017-01-17T01:05:05.415Z,1033.13
2017-01-17T01:06:06.184Z,1033.17
2017-01-17T01:07:06.938Z,1033.15
2017-01-17T01:08:07.658Z,1033.16
2017-01-17T01:09:08.482Z,1033.16
2017-01-17T01:10:09.182Z,1033.2
2017-01-17T01:11:09.933Z,1033.15
2017-01-17T01:12:10.678Z,1033.17
2017-01-17T01:13:11.441Z,1033.19
2017-01-17T01:14:12.243Z,1033.19
2017-01-17T01:15:13.028Z,1033.17
2017-01-17T01:16:13.781Z,1033.17
2017-01-17T01:17:14.529Z,1033.17
2017-01-17T01:18:15.273Z,1033.16
2017-01-17T01:19:16.056Z,1033.13
2017-01-17T01:20:16.829Z,1033.18
2017-01-17T01:21:17.586Z,1033.17
2017-01-17T01:22:18.396Z,1033.2
2017-01-17T01:23:19.129Z,1033.21
2017-01-17T01:24:19.870Z,1033.26
2017-01-17T01:25:20.627Z,1033.22
2017-01-17T01:26:21.363Z,1033.22
2017-01-17T01:27:22.115Z,1033.29
2017-01-17T01:28:22.892Z,1033.29
2017-01-17T01:29:23.635Z,1033.28
2017-01-17T01:30:24.381Z,1033.25
2017-01-17T01:31:25.123Z,1033.3
2017-01-17T01:32:25.869Z,1033.3
2017-01-17T01:33:26.634Z,1033.34
2017-01-17T01:34:27.420Z,1033.29
2017-01-17T01:35:28.159Z,1033.29
2017-01-17T01:36:28.908Z,1033.33
2017-01-17T01:37:29.666Z,1033.34
2017-01-17T01:38:30.411Z,1033.31
2017-01-17T01:39:31.157Z,1033.3
2017-01-17T01:40:31.906Z,1033.35
2017-01-17T01:41:32.665Z,1033.3
2017-01-17T01:42:33.434Z,1033.34
2017-01-17T01:43:34.203Z,1033.39
2017-01-17T01:44:34.931Z,1033.36
2017-01-17T01:45:35.670Z,1033.4
2017-01-17T01:46:36.431Z,1033.38
2017-01-17T01:47:37.186Z,1033.4
2017-01-17T01:48:37.937Z,1033.38
2017-01-17T01:49:38.704Z,1033.38
2017-01-17T01:50:39.454Z,1033.4
2017-01-17T01:51:40.210Z,1033.44
2017-01-17T01:52:40.958Z,1033.46
2017-01-17T01:53:41.705Z,1033.47
2017-01-17T01:54:42.452Z,1033.46
2017-01-17T01:55:43.204Z,1033.48
2017-01-17T01:56:43.958Z,1033.49
2017-01-17T01:57:44.724Z,1033.51
2017-01-17T01:58:45.485Z,1033.58
2017-01-17T01:59:46.260Z,1033.63
2017-01-17T02:00:47.020Z,1033.64
2017-01-17T02:01:47.780Z,1033.63
2017-01-17T02:02:48.519Z,1033.64
2017-01-17T02:03:49.258Z,1033.64
2017-01-17T02:04:50.000Z,1033.68
2017-01-17T02:05:50.782Z,1033.69
2017-01-17T02:06:51.555Z,1033.7
2017-01-17T02:07:52.306Z,1033.72
2017-01-17T02:08:53.056Z,1033.71
2017-01-17T02:09:53.822Z,1033.75
2017-01-17T02:10:54.576Z,1033.75
2017-01-17T02:11:55.376Z,1033.74
2017-01-17T02:12:56.090Z,1033.75
2017-01-17T02:13:56.863Z,1033.74
2017-01-17T02:14:57.614Z,1033.77
2017-01-17T02:15:58.366Z,1033.73
2017-01-17T02:16:59.112Z,1033.73
2017-01-17T02:17:59.864Z,1033.68
2017-01-17T02:19:00.592Z,1033.8
2017-01-17T02:20:01.331Z,1033.79
2017-01-17T02:21:02.072Z,1033.83
2017-01-17T02:22:02.820Z,1033.88
2017-01-17T02:23:03.569Z,1033.87
2017-01-17T02:24:04.313Z,1033.86
2017-01-17T02:25:05.056Z,1033.83
2017-01-17T02:26:05.805Z,1033.8
2017-01-17T02:27:06.564Z,1033.82
2017-01-17T02:28:07.305Z,1033.84
2017-01-17T02:29:08.052Z,1033.85
2017-01-17T02:30:08.792Z,1033.82
2017-01-17T02:31:09.544Z,1033.8
2017-01-17T02:32:10.325Z,1033.83
2017-01-17T02:33:11.054Z,1033.83
2017-01-17T02:34:14.590Z,1033.84
2017-01-17T02:35:15.323Z,1033.8
2017-01-17T02:36:16.071Z,1033.86
2017-01-17T02:37:16.821Z,1033.84
2017-01-17T02:38:17.567Z,1033.87
2017-01-17T02:39:18.310Z,1033.89
2017-01-17T02:40:19.049Z,1033.88
2017-01-17T02:41:19.804Z,1033.88
2017-01-17T02:42:20.549Z,1033.86
2017-01-17T02:43:21.291Z,1033.89
2017-01-17T02:44:22.045Z,1033.91
2017-01-17T02:45:22.844Z,1033.89
2017-01-17T02:46:23.630Z,1033.91
2017-01-17T02:47:24.383Z,1033.89
2017-01-17T02:48:25.145Z,1033.89
2017-01-17T02:49:25.942Z,1033.9
2017-01-17T02:50:26.936Z,1033.94
2017-01-17T02:51:27.685Z,1033.94
2017-01-17T02:52:28.468Z,1033.92
2017-01-17T02:53:29.418Z,1033.96
2017-01-17T02:54:30.168Z,1033.95
2017-01-17T02:55:30.968Z,1033.93
2017-01-17T02:56:31.709Z,1033.94
2017-01-17T02:57:32.453Z,1033.91
2017-01-17T02:58:33.208Z,1033.95
2017-01-17T02:59:33.956Z,1033.98
2017-01-17T03:00:34.698Z,1033.94
2017-01-17T03:01:35.451Z,1033.9
2017-01-17T03:02:36.196Z,1033.92
2017-01-17T03:03:36.975Z,1033.9
2017-01-17T03:04:37.729Z,1033.91
2017-01-17T03:05:38.456Z,1033.95
2017-01-17T03:06:39.219Z,1033.93
2017-01-17T03:07:39.989Z,1033.99
2017-01-17T03:08:40.755Z,1033.96
2017-01-17T03:09:41.498Z,1033.98
2017-01-17T03:10:42.253Z,1034
2017-01-17T03:11:43.011Z,1033.98
2017-01-17T03:12:43.767Z,1034
2017-01-17T03:13:44.516Z,1033.99
2017-01-17T03:14:45.267Z,1034
2017-01-17T03:15:46.027Z,1034.02
2017-01-17T03:16:46.764Z,1034.04
2017-01-17T03:17:47.516Z,1034.09
2017-01-17T03:18:48.269Z,1034.04
2017-01-17T03:19:49.010Z,1034.06
2017-01-17T03:20:49.771Z,1034.06
2017-01-17T03:21:50.517Z,1034.05
2017-01-17T03:22:51.259Z,1034.09
2017-01-17T03:23:52.036Z,1034.16
2017-01-17T03:24:52.784Z,1034.14
2017-01-17T03:25:53.534Z,1034.16
2017-01-17T03:26:54.285Z,1034.18
2017-01-17T03:27:55.037Z,1034.17
2017-01-17T03:28:55.787Z,1034.18
2017-01-17T03:29:56.525Z,1034.16
2017-01-17T03:30:57.289Z,1034.19
2017-01-17T03:31:58.045Z,1034.11
2017-01-17T03:32:58.842Z,1034.14
2017-01-17T03:33:59.603Z,1034.11
2017-01-17T03:35:00.347Z,1034.1
2017-01-17T03:36:01.095Z,1034.06
2017-01-17T03:37:01.825Z,1034.09
2017-01-17T03:38:02.556Z,1034.04
2017-01-17T03:39:03.302Z,1034.06
2017-01-17T03:40:04.040Z,1034.04
2017-01-17T03:41:04.819Z,1034.01
2017-01-17T03:42:05.559Z,1034.03
2017-01-17T03:43:06.302Z,1034.03
2017-01-17T03:44:07.049Z,1034.01
2017-01-17T03:45:07.796Z,1034.01
2017-01-17T03:46:08.547Z,1033.98
2017-01-17T03:47:09.278Z,1033.98
2017-01-17T03:48:10.029Z,1033.98
2017-01-17T03:49:10.803Z,1033.92
2017-01-17T03:50:11.549Z,1033.97
2017-01-17T03:51:12.304Z,1033.91
2017-01-17T03:52:13.069Z,1033.94
2017-01-17T03:53:13.824Z,1033.95
2017-01-17T03:54:14.560Z,1033.91
2017-01-17T03:55:15.319Z,1033.94
2017-01-17T03:56:16.092Z,1033.93
2017-01-17T03:57:16.834Z,1033.91
2017-01-17T03:58:17.570Z,1033.91
2017-01-17T03:59:18.313Z,1033.91
2017-01-17T04:00:19.060Z,1033.93
2017-01-17T04:01:19.816Z,1033.9
2017-01-17T04:02:20.570Z,1033.91
2017-01-17T04:03:21.349Z,1033.95
2017-01-17T04:04:22.128Z,1033.94
2017-01-17T04:05:22.905Z,1033.94
2017-01-17T04:06:23.679Z,1033.98
2017-01-17T04:07:24.425Z,1034.01
2017-01-17T04:08:25.157Z,1033.99
2017-01-17T04:09:25.904Z,1033.99
2017-01-17T04:10:26.650Z,1034.02
2017-01-17T04:11:27.411Z,1034.06
2017-01-17T04:12:28.163Z,1034.03
2017-01-17T04:13:28.912Z,1034.01
2017-01-17T04:14:29.718Z,1034.01
2017-01-17T04:15:30.440Z,1034.05
2017-01-17T04:16:31.179Z,1034.07
2017-01-17T04:17:31.916Z,1034.04
2017-01-17T04:18:32.675Z,1034.02
2017-01-17T04:19:33.430Z,1034
2017-01-17T04:20:34.175Z,1034.01
2017-01-17T04:21:34.923Z,1034.01
2017-01-17T04:22:35.684Z,1034.02
2017-01-17T04:23:36.480Z,1034.05
2017-01-17T04:24:37.222Z,1034.06
2017-01-17T04:25:37.978Z,1034.06
2017-01-17T04:26:38.747Z,1034.11
2017-01-17T04:27:39.495Z,1034.1
2017-01-17T04:28:40.238Z,1034.16
2017-01-17T04:29:40.972Z,1034.15
2017-01-17T04:30:41.735Z,1034.16
2017-01-17T04:31:42.467Z,1034.14
2017-01-17T04:32:43.233Z,1034.16
2017-01-17T04:33:44.023Z,1034.17
2017-01-17T04:34:44.777Z,1034.13
2017-01-17T04:35:45.517Z,1034.15
2017-01-17T04:36:46.274Z,1034.19
2017-01-17T04:37:47.019Z,1034.14
2017-01-17T04:38:47.776Z,1034.12
2017-01-17T04:39:48.550Z,1034.15
2017-01-17T04:40:49.291Z,1034.16
2017-01-17T04:41:50.080Z,1034.14
2017-01-17T04:42:50.849Z,1034.17
2017-01-17T04:43:51.599Z,1034.15
2017-01-17T04:44:52.346Z,1034.17
2017-01-17T04:45:53.115Z,1034.17
2017-01-17T04:46:53.859Z,1034.18
2017-01-17T04:47:54.607Z,1034.25
2017-01-17T04:48:55.352Z,1034.21
2017-01-17T04:49:56.111Z,1034.26
2017-01-17T04:50:56.852Z,1034.26
2017-01-17T04:51:57.614Z,1034.27
2017-01-17T04:52:58.361Z,1034.28
2017-01-17T04:53:59.133Z,1034.32
2017-01-17T04:54:59.869Z,1034.34
2017-01-17T04:56:00.598Z,1034.36
2017-01-17T04:57:01.357Z,1034.38
2017-01-17T04:58:02.107Z,1034.36
2017-01-17T04:59:02.853Z,1034.39
2017-01-17T05:00:03.592Z,1034.4
2017-01-17T05:01:04.366Z,1034.39
2017-01-17T05:02:05.130Z,1034.41
2017-01-17T05:03:05.854Z,1034.4
2017-01-17T05:04:06.593Z,1034.41
2017-01-17T05:05:07.344Z,1034.43
2017-01-17T05:06:08.118Z,1034.45
2017-01-17T05:07:08.876Z,1034.42
2017-01-17T05:08:09.614Z,1034.42
2017-01-17T05:09:10.367Z,1034.44
2017-01-17T05:10:11.105Z,1034.44
2017-01-17T05:11:11.833Z,1034.44
2017-01-17T05:12:12.571Z,1034.46
2017-01-17T05:13:13.308Z,1034.44
2017-01-17T05:14:14.061Z,1034.45
2017-01-17T05:15:14.813Z,1034.46
2017-01-17T05:16:15.705Z,1034.46
2017-01-17T05:17:16.491Z,1034.47
2017-01-17T05:18:17.686Z,1034.49
2017-01-17T05:19:18.423Z,1034.46
2017-01-17T05:20:19.188Z,1034.48
2017-01-17T05:21:19.940Z,1034.52
2017-01-17T05:22:20.683Z,1034.57
2017-01-17T05:23:21.453Z,1034.56
2017-01-17T05:24:22.226Z,1034.55
2017-01-17T05:25:23.045Z,1034.59
2017-01-17T05:26:23.808Z,1034.61
2017-01-17T05:27:24.565Z,1034.61
2017-01-17T05:28:25.343Z,1034.61
2017-01-17T05:29:26.106Z,1034.62
2017-01-17T05:30:26.873Z,1034.61
2017-01-17T05:31:27.625Z,1034.63
2017-01-17T05:32:28.391Z,1034.68
2017-01-17T05:33:29.160Z,1034.66
2017-01-17T05:34:29.906Z,1034.71
2017-01-17T05:35:30.667Z,1034.67
2017-01-17T05:36:31.419Z,1034.73
2017-01-17T05:37:32.177Z,1034.77
2017-01-17T05:38:32.919Z,1034.81
2017-01-17T05:39:33.667Z,1034.83
2017-01-17T05:40:34.419Z,1034.87
2017-01-17T05:41:35.177Z,1034.84
2017-01-17T05:42:35.944Z,1034.86
2017-01-17T05:43:36.705Z,1034.93
2017-01-17T05:44:37.445Z,1034.91
2017-01-17T05:45:38.217Z,1034.94
2017-01-17T05:46:38.985Z,1034.96
2017-01-17T05:47:39.826Z,1034.96
2017-01-17T05:48:40.570Z,1034.97
2017-01-17T05:49:41.314Z,1035
2017-01-17T05:50:42.058Z,1034.96
2017-01-17T05:51:42.817Z,1034.95
2017-01-17T05:52:43.600Z,1034.95
2017-01-17T05:53:44.382Z,1034.99
2017-01-17T05:54:45.125Z,1034.96
2017-01-17T05:55:45.912Z,1034.96
2017-01-17T05:56:46.661Z,1034.99
2017-01-17T05:57:47.414Z,1035
2017-01-17T05:58:48.151Z,1035.01
2017-01-17T05:59:48.900Z,1034.97
2017-01-17T06:00:49.644Z,1035.01
2017-01-17T06:01:50.377Z,1035.01
2017-01-17T06:02:51.140Z,1034.98
2017-01-17T06:03:51.886Z,1034.99
2017-01-17T06:04:52.649Z,1035.01
2017-01-17T06:05:53.400Z,1034.97
2017-01-17T06:06:54.154Z,1035
2017-01-17T06:07:54.892Z,1035.02
2017-01-17T06:08:55.654Z,1034.98
2017-01-17T06:09:56.522Z,1034.99
2017-01-17T06:10:57.265Z,1035.04
2017-01-17T06:11:58.024Z,1035.02
2017-01-17T06:12:58.794Z,1035.07
2017-01-17T06:13:59.544Z,1035.03
2017-01-17T06:15:00.293Z,1035.05
2017-01-17T06:16:01.054Z,1035.09
2017-01-17T06:17:01.791Z,1035.11
2017-01-17T06:18:02.549Z,1035.11
2017-01-17T06:19:03.289Z,1035.17
2017-01-17T06:20:04.060Z,1035.17
2017-01-17T06:21:04.813Z,1035.19
2017-01-17T06:22:05.554Z,1035.17
2017-01-17T06:23:06.310Z,1035.21
2017-01-17T06:24:07.076Z,1035.21
2017-01-17T06:25:07.849Z,1035.24
2017-01-17T06:26:08.586Z,1035.28
2017-01-17T06:27:09.326Z,1035.28
2017-01-17T06:28:10.070Z,1035.27
2017-01-17T06:29:10.809Z,1035.31
2017-01-17T06:30:11.576Z,1035.3
2017-01-17T06:31:12.331Z,1035.32
2017-01-17T06:32:13.071Z,1035.33
2017-01-17T06:33:13.843Z,1035.36
2017-01-17T06:34:14.588Z,1035.43
2017-01-17T06:35:15.369Z,1035.42
2017-01-17T06:36:16.121Z,1035.42
2017-01-17T06:37:16.892Z,1035.44
2017-01-17T06:38:17.645Z,1035.48
2017-01-17T06:39:18.414Z,1035.51
2017-01-17T06:40:19.189Z,1035.49
2017-01-17T06:41:19.927Z,1035.54
2017-01-17T06:42:20.683Z,1035.52
2017-01-17T06:43:21.474Z,1035.53
2017-01-17T06:44:22.218Z,1035.51
2017-01-17T06:45:22.991Z,1035.54
2017-01-17T06:46:23.728Z,1035.56
2017-01-17T06:47:24.483Z,1035.6
2017-01-17T06:48:25.224Z,1035.62
2017-01-17T06:49:25.981Z,1035.69
2017-01-17T06:50:26.717Z,1035.63
2017-01-17T06:51:27.465Z,1035.62
2017-01-17T06:52:28.212Z,1035.65
2017-01-17T06:53:28.980Z,1035.69
2017-01-17T06:54:29.742Z,1035.61
2017-01-17T06:55:30.498Z,1035.67
2017-01-17T06:56:31.291Z,1035.7
2017-01-17T06:57:32.054Z,1035.69
2017-01-17T06:58:32.824Z,1035.67
2017-01-17T06:59:33.638Z,1035.72
2017-01-17T07:00:34.394Z,1035.75
2017-01-17T07:01:35.140Z,1035.79
2017-01-17T07:02:35.891Z,1035.77
2017-01-17T07:03:36.654Z,1035.77
2017-01-17T07:04:37.417Z,1035.79
2017-01-17T07:05:38.222Z,1035.82
2017-01-17T07:06:39.012Z,1035.84
2017-01-17T07:07:39.758Z,1035.82
2017-01-17T07:08:40.509Z,1035.84
2017-01-17T07:09:41.302Z,1035.83
2017-01-17T07:10:42.060Z,1035.87
2017-01-17T07:11:42.831Z,1035.87
2017-01-17T07:12:43.586Z,1035.86
2017-01-17T07:13:44.348Z,1035.9
2017-01-17T07:14:45.096Z,1035.88
2017-01-17T07:15:45.852Z,1035.89
2017-01-17T07:16:46.622Z,1035.98
2017-01-17T07:17:47.376Z,1035.91
2017-01-17T07:18:48.113Z,1035.93
2017-01-17T07:19:48.880Z,1035.95
2017-01-17T07:20:49.677Z,1035.94
2017-01-17T07:21:50.453Z,1035.97
2017-01-17T07:22:51.210Z,1035.95
2017-01-17T07:23:51.951Z,1035.95
2017-01-17T07:24:52.746Z,1035.99
2017-01-17T07:25:53.549Z,1036
2017-01-17T07:26:54.329Z,1036.03
2017-01-17T07:27:55.090Z,1036.04
2017-01-17T07:28:55.880Z,1036.06
2017-01-17T07:29:56.641Z,1036.03
2017-01-17T07:30:57.396Z,1036.02
2017-01-17T07:31:58.164Z,1035.99
2017-01-17T07:32:58.914Z,1035.99
2017-01-17T07:33:59.663Z,1036.02
2017-01-17T07:35:00.411Z,1036.05
2017-01-17T07:36:01.206Z,1036.06
2017-01-17T07:37:01.972Z,1036.04
2017-01-17T07:38:02.744Z,1036.06
2017-01-17T07:39:03.522Z,1036.04
2017-01-17T07:40:04.310Z,1036.06
2017-01-17T07:41:05.076Z,1036.06
2017-01-17T07:42:05.863Z,1036.11
2017-01-17T07:43:06.628Z,1036.11
2017-01-17T07:44:07.382Z,1036.1
2017-01-17T07:45:08.145Z,1036.07
2017-01-17T07:46:08.925Z,1036.09
2017-01-17T07:47:09.680Z,1036.11
2017-01-17T07:48:10.456Z,1036.1
2017-01-17T07:49:11.200Z,1036.11
2017-01-17T07:50:11.986Z,1036.1
2017-01-17T07:51:12.756Z,1036.07
2017-01-17T07:52:13.522Z,1036.09
2017-01-17T07:53:14.273Z,1036.12
2017-01-17T07:54:15.038Z,1036.11
2017-01-17T07:55:15.782Z,1036.13
2017-01-17T07:56:16.536Z,1036.15
2017-01-17T07:57:17.299Z,1036.19
2017-01-17T07:58:18.047Z,1036.2
2017-01-17T07:59:18.822Z,1036.12
2017-01-17T08:00:19.578Z,1036.18
2017-01-17T08:01:20.335Z,1036.15
2017-01-17T08:02:21.083Z,1036.16
2017-01-17T08:03:21.891Z,1036.17
2017-01-17T08:04:22.651Z,1036.17
2017-01-17T08:05:23.403Z,1036.16
2017-01-17T08:06:24.180Z,1036.19
2017-01-17T08:07:24.959Z,1036.19
2017-01-17T08:08:25.726Z,1036.19
2017-01-17T08:09:26.478Z,1036.17
2017-01-17T08:10:27.247Z,1036.18
2017-01-17T08:11:27.996Z,1036.24
2017-01-17T08:12:29.280Z,1036.24
2017-01-17T08:13:30.972Z,1036.26
2017-01-17T08:14:32.707Z,1036.28
2017-01-17T08:15:34.407Z,1036.32
2017-01-17T08:16:36.062Z,1036.32
2017-01-17T08:17:37.755Z,1036.37
2017-01-17T08:18:39.369Z,1036.32
2017-01-17T08:19:40.952Z,1036.36
2017-01-17T08:20:42.330Z,1036.38
2017-01-17T08:21:43.187Z,1036.42
2017-01-17T08:22:43.953Z,1036.42
2017-01-17T08:23:44.711Z,1036.45
2017-01-17T08:24:45.492Z,1036.44
2017-01-17T08:25:46.262Z,1036.43
2017-01-17T08:26:47.062Z,1036.44
2017-01-17T08:27:47.812Z,1036.42
2017-01-17T08:28:48.543Z,1036.44
2017-01-17T08:29:49.323Z,1036.51
2017-01-17T08:30:50.085Z,1036.5
2017-01-17T08:31:50.840Z,1036.55
2017-01-17T08:32:51.586Z,1036.58
2017-01-17T08:33:52.336Z,1036.54
2017-01-17T08:34:53.095Z,1036.51
2017-01-17T08:35:53.865Z,1036.5
2017-01-17T08:36:54.622Z,1036.58
2017-01-17T08:37:55.386Z,1036.59
2017-01-17T08:38:56.131Z,1036.53
2017-01-17T08:39:56.876Z,1036.52
2017-01-17T08:40:57.655Z,1036.58
2017-01-17T08:41:58.433Z,1036.63
2017-01-17T08:42:59.201Z,1036.59
2017-01-17T08:44:00.041Z,1036.59
2017-01-17T08:45:00.849Z,1036.62
2017-01-17T08:46:01.602Z,1036.68
2017-01-17T08:47:02.356Z,1036.69
2017-01-17T08:48:03.097Z,1036.67
2017-01-17T08:49:03.865Z,1036.72
2017-01-17T08:50:04.638Z,1036.77
2017-01-17T08:51:05.413Z,1036.81
2017-01-17T08:52:06.166Z,1036.83
2017-01-17T08:53:06.941Z,1036.81
2017-01-17T08:54:07.731Z,1036.82
2017-01-17T08:55:08.480Z,1036.86
2017-01-17T08:56:09.253Z,1036.81
2017-01-17T08:57:10.020Z,1036.84
2017-01-17T08:58:10.760Z,1036.9
2017-01-17T08:59:11.539Z,1036.88
2017-01-17T09:00:12.300Z,1036.91
2017-01-17T09:01:13.062Z,1036.91
2017-01-17T09:02:13.804Z,1036.91
2017-01-17T09:03:14.585Z,1036.89
2017-01-17T09:04:15.368Z,1036.9
2017-01-17T09:05:16.124Z,1036.98
2017-01-17T09:06:16.874Z,1036.97
2017-01-17T09:07:17.630Z,1036.97
2017-01-17T09:08:18.402Z,1037
2017-01-17T09:09:19.183Z,1036.99
2017-01-17T09:10:19.952Z,1036.98
2017-01-17T09:11:20.729Z,1036.96
2017-01-17T09:12:21.497Z,1036.97
2017-01-17T09:13:22.258Z,1036.96
2017-01-17T09:14:23.028Z,1036.99
2017-01-17T09:15:23.789Z,1036.96
2017-01-17T09:16:24.558Z,1036.99
2017-01-17T09:17:25.313Z,1037.03
2017-01-17T09:18:26.077Z,1037.07
2017-01-17T09:19:26.832Z,1037.03
2017-01-17T09:20:27.620Z,1037.05
2017-01-17T09:21:28.406Z,1037.04
2017-01-17T09:22:29.253Z,1037.09
2017-01-17T09:23:30.022Z,1037.1
2017-01-17T09:24:30.813Z,1037.12
2017-01-17T09:25:31.580Z,1037.11
2017-01-17T09:26:32.324Z,1037.15
2017-01-17T09:27:33.112Z,1037.16
2017-01-17T09:28:33.885Z,1037.17
2017-01-17T09:29:34.634Z,1037.14
2017-01-17T09:30:35.383Z,1037.2
2017-01-17T09:31:36.140Z,1037.23
2017-01-17T09:32:36.896Z,1037.28
2017-01-17T09:33:37.663Z,1037.29
2017-01-17T09:34:38.403Z,1037.24
2017-01-17T09:35:39.153Z,1037.29
2017-01-17T09:36:39.897Z,1037.29
2017-01-17T09:37:40.647Z,1037.31
2017-01-17T09:38:41.403Z,1037.35
2017-01-17T09:39:42.153Z,1037.41
2017-01-17T09:40:42.915Z,1037.39
2017-01-17T09:41:43.675Z,1037.38
2017-01-17T09:42:44.432Z,1037.39
2017-01-17T09:43:45.246Z,1037.43
2017-01-17T09:44:45.965Z,1037.41
2017-01-17T09:45:46.733Z,1037.48
2017-01-17T09:46:47.486Z,1037.51
2017-01-17T09:47:48.260Z,1037.45
2017-01-17T09:48:49.044Z,1037.53
2017-01-17T09:49:49.819Z,1037.49
2017-01-17T09:50:50.591Z,1037.5
2017-01-17T09:51:51.357Z,1037.48
2017-01-17T09:52:52.130Z,1037.45
2017-01-17T09:53:52.903Z,1037.44
2017-01-17T09:54:53.676Z,1037.47
2017-01-17T09:55:54.458Z,1037.47
2017-01-17T09:56:55.223Z,1037.51
2017-01-17T09:57:55.991Z,1037.5
2017-01-17T09:58:56.752Z,1037.51
2017-01-17T09:59:57.520Z,1037.47
2017-01-17T10:00:58.262Z,1037.51
2017-01-17T10:01:59.065Z,1037.53
2017-01-17T10:02:59.823Z,1037.51
2017-01-17T10:04:00.595Z,1037.48
2017-01-17T10:05:01.357Z,1037.47
2017-01-17T10:06:02.133Z,1037.45
2017-01-17T10:07:02.896Z,1037.46
2017-01-17T10:08:03.680Z,1037.43
2017-01-17T10:09:04.445Z,1037.43
2017-01-17T10:10:05.219Z,1037.45
2017-01-17T10:11:05.978Z,1037.52
2017-01-17T10:12:06.732Z,1037.53
2017-01-17T10:13:07.512Z,1037.52
2017-01-17T10:14:08.260Z,1037.52
2017-01-17T10:15:09.021Z,1037.55
2017-01-17T10:16:09.802Z,1037.57
2017-01-17T10:17:10.605Z,1037.56
2017-01-17T10:18:11.376Z,1037.55
2017-01-17T10:19:12.146Z,1037.5
2017-01-17T10:20:12.911Z,1037.49
2017-01-17T10:21:13.678Z,1037.47
2017-01-17T10:22:14.500Z,1037.43
2017-01-17T10:23:15.262Z,1037.51
2017-01-17T10:24:16.017Z,1037.52
2017-01-17T10:25:16.770Z,1037.5
2017-01-17T10:26:17.527Z,1037.53
2017-01-17T10:27:18.327Z,1037.55
2017-01-17T10:28:19.112Z,1037.57
2017-01-17T10:29:19.912Z,1037.52
2017-01-17T10:30:20.671Z,1037.57
2017-01-17T10:31:21.437Z,1037.57
2017-01-17T10:32:22.215Z,1037.63
2017-01-17T10:33:22.957Z,1037.62
2017-01-17T10:34:23.730Z,1037.63
2017-01-17T10:35:24.472Z,1037.61
2017-01-17T10:36:25.219Z,1037.55
2017-01-17T10:37:25.981Z,1037.53
2017-01-17T10:38:26.733Z,1037.54
2017-01-17T10:39:27.507Z,1037.48
2017-01-17T10:40:28.280Z,1037.5
2017-01-17T10:41:29.031Z,1037.49
2017-01-17T10:42:29.871Z,1037.47
2017-01-17T10:43:30.647Z,1037.47
2017-01-17T10:44:31.397Z,1037.45
2017-01-17T10:45:32.154Z,1037.48
2017-01-17T10:46:32.923Z,1037.49
2017-01-17T10:47:33.691Z,1037.52
2017-01-17T10:48:34.451Z,1037.57
2017-01-17T10:49:35.284Z,1037.58
2017-01-17T10:50:36.032Z,1037.58
2017-01-17T10:51:36.804Z,1037.62
2017-01-17T10:52:37.539Z,1037.67
2017-01-17T10:53:38.304Z,1037.65
2017-01-17T10:54:39.057Z,1037.66
2017-01-17T10:55:39.811Z,1037.71
2017-01-17T10:56:40.593Z,1037.71
2017-01-17T10:57:41.341Z,1037.73
2017-01-17T10:58:42.146Z,1037.79
2017-01-17T10:59:42.919Z,1037.8
2017-01-17T11:00:43.685Z,1037.76
2017-01-17T11:01:44.468Z,1037.77
2017-01-17T11:02:45.215Z,1037.67
2017-01-17T11:03:45.984Z,1037.64
2017-01-17T11:04:46.804Z,1037.68
2017-01-17T11:05:47.587Z,1037.68
2017-01-17T11:06:48.343Z,1037.72
2017-01-17T11:07:49.116Z,1037.77
2017-01-17T11:08:49.877Z,1037.72
2017-01-17T11:09:50.646Z,1037.72
2017-01-17T11:10:51.406Z,1037.73
2017-01-17T11:11:52.156Z,1037.74
2017-01-17T11:12:52.949Z,1037.68
2017-01-17T11:13:53.689Z,1037.68
2017-01-17T11:14:54.443Z,1037.64
2017-01-17T11:15:55.206Z,1037.63
2017-01-17T11:16:55.957Z,1037.57
2017-01-17T11:17:56.731Z,1037.57
2017-01-17T11:18:57.536Z,1037.55
2017-01-17T11:19:58.301Z,1037.55
2017-01-17T11:20:59.046Z,1037.57
2017-01-17T11:21:59.819Z,1037.6
2017-01-17T11:23:00.612Z,1037.59
2017-01-17T11:24:01.368Z,1037.58
2017-01-17T11:25:02.135Z,1037.61
2017-01-17T11:26:02.889Z,1037.6
2017-01-17T11:27:03.674Z,1037.62
2017-01-17T11:28:04.438Z,1037.64
2017-01-17T11:29:05.207Z,1037.66
2017-01-17T11:30:05.990Z,1037.63
2017-01-17T11:31:06.749Z,1037.63
2017-01-17T11:32:07.497Z,1037.64
2017-01-17T11:33:08.278Z,1037.66
2017-01-17T11:34:09.029Z,1037.6
2017-01-17T11:35:09.810Z,1037.6
2017-01-17T11:36:10.568Z,1037.64
2017-01-17T11:37:11.379Z,1037.64
2017-01-17T11:38:12.132Z,1037.67
2017-01-17T11:39:12.913Z,1037.66
2017-01-17T11:40:13.688Z,1037.6
2017-01-17T11:41:14.464Z,1037.61
2017-01-17T11:42:15.212Z,1037.64
2017-01-17T11:43:16.146Z,1037.68
2017-01-17T11:44:16.925Z,1037.68
2017-01-17T11:45:17.702Z,1037.71
2017-01-17T11:46:18.477Z,1037.73
2017-01-17T11:47:19.219Z,1037.74
2017-01-17T11:48:19.990Z,1037.7
2017-01-17T11:49:20.751Z,1037.69
2017-01-17T11:50:21.511Z,1037.73
2017-01-17T11:51:22.256Z,1037.74
2017-01-17T11:52:23.017Z,1037.74
2017-01-17T11:53:23.777Z,1037.77
2017-01-17T11:54:24.534Z,1037.77
2017-01-17T11:55:25.297Z,1037.75
2017-01-17T11:56:26.048Z,1037.74
2017-01-17T11:57:26.818Z,1037.75
2017-01-17T11:58:27.577Z,1037.76
2017-01-17T11:59:28.338Z,1037.76
2017-01-17T12:00:29.090Z,1037.77
2017-01-17T12:01:29.841Z,1037.77
2017-01-17T12:02:30.631Z,1037.72
2017-01-17T12:03:31.366Z,1037.72
2017-01-17T12:04:32.117Z,1037.78
2017-01-17T12:05:32.894Z,1037.78
2017-01-17T12:06:33.639Z,1037.76
2017-01-17T12:07:34.469Z,1037.74
2017-01-17T12:08:35.229Z,1037.76
2017-01-17T12:09:35.986Z,1037.77
2017-01-17T12:10:36.774Z,1037.77
2017-01-17T12:11:37.510Z,1037.78
2017-01-17T12:12:38.248Z,1037.72
2017-01-17T12:13:39.004Z,1037.73
2017-01-17T12:14:39.782Z,1037.74
2017-01-17T12:15:40.543Z,1037.78
2017-01-17T12:16:41.315Z,1037.76
2017-01-17T12:17:42.100Z,1037.77